QXE821 KPDX-KBOI
Flight info
| Callsign | QXE821 |
|---|---|
| Flight time | 1h 12m |
| Altitude | 21000 |
| Route | TIMEE MAALR JIMMI |
| Aircraft | DH8D/M-SDE2E3FGRY/H |
Departure
| Time | 2026-05-06 00:03 |
|---|---|
| Airport | Portland International Airport (KPDX) |
Arrival
| Time | 2026-05-06 01:16 |
|---|---|
| Airport | Boise Air Terminal/Gowen Field (KBOI) |
| Time | Latitude | Longitude | Altitude | Speed | Heading |
|---|---|---|---|---|---|
| 2026-05-05 23:30 | 45.58551 | -122.59148 | 29 ft | 0 kts | 349° |
| 2026-05-05 23:55 | 45.58544 | -122.59148 | 29 ft | 2 kts | 5° |
| 2026-05-05 23:56 | 45.58530 | -122.59155 | 29 ft | 2 kts | 44° |
| 2026-05-05 23:56 | 45.58524 | -122.59174 | 29 ft | 2 kts | 82° |
| 2026-05-05 23:56 | 45.58526 | -122.59193 | 29 ft | 2 kts | 120° |
| 2026-05-05 23:56 | 45.58526 | -122.59194 | 29 ft | 1 kts | 118° |
| 2026-05-05 23:57 | 45.58526 | -122.59187 | 29 ft | 0 kts | 88° |
| 2026-05-05 23:59 | 45.58525 | -122.59177 | 29 ft | 2 kts | 103° |
| 2026-05-05 23:59 | 45.58511 | -122.59154 | 29 ft | 3 kts | 146° |
| 2026-05-05 23:59 | 45.58489 | -122.59130 | 29 ft | 5 kts | 133° |
| 2026-05-05 23:59 | 45.58460 | -122.59081 | 29 ft | 7 kts | 128° |
| 2026-05-06 00:00 | 45.58424 | -122.59014 | 29 ft | 9 kts | 126° |
| 2026-05-06 00:00 | 45.58388 | -122.58935 | 29 ft | 10 kts | 120° |
| 2026-05-06 00:00 | 45.58355 | -122.58849 | 29 ft | 10 kts | 120° |
| 2026-05-06 00:00 | 45.58308 | -122.58731 | 29 ft | 15 kts | 118° |
| 2026-05-06 00:01 | 45.58260 | -122.58603 | 28 ft | 13 kts | 118° |
| 2026-05-06 00:01 | 45.58213 | -122.58486 | 26 ft | 13 kts | 119° |
| 2026-05-06 00:01 | 45.58170 | -122.58383 | 26 ft | 7 kts | 134° |
| 2026-05-06 00:01 | 45.58125 | -122.58362 | 26 ft | 7 kts | 186° |
| 2026-05-06 00:02 | 45.58085 | -122.58405 | 26 ft | 7 kts | 245° |
| 2026-05-06 00:02 | 45.58083 | -122.58472 | 26 ft | 6 kts | 291° |
| 2026-05-06 00:02 | 45.58103 | -122.58524 | 26 ft | 5 kts | 299° |
| 2026-05-06 00:02 | 45.58207 | -122.58791 | 27 ft | 73 kts | 300° |
| 2026-05-06 00:03 | 45.58591 | -122.59775 | 29 ft | 145 kts | 301° |
| 2026-05-06 00:03 | 45.59115 | -122.61122 | 343 ft | 165 kts | 300° |
| 2026-05-06 00:03 | 45.59702 | -122.62542 | 974 ft | 171 kts | 303° |
| 2026-05-06 00:03 | 45.60377 | -122.63954 | 1581 ft | 177 kts | 305° |
| 2026-05-06 00:04 | 45.61095 | -122.65475 | 1931 ft | 194 kts | 304° |
| 2026-05-06 00:04 | 45.61789 | -122.67161 | 2436 ft | 200 kts | 298° |
| 2026-05-06 00:04 | 45.62447 | -122.68913 | 2971 ft | 206 kts | 299° |
| 2026-05-06 00:04 | 45.63150 | -122.70745 | 3443 ft | 214 kts | 299° |
| 2026-05-06 00:05 | 45.64605 | -122.74572 | 4529 ft | 224 kts | 301° |
| 2026-05-06 00:05 | 45.65393 | -122.76502 | 5076 ft | 229 kts | 301° |
| 2026-05-06 00:05 | 45.66179 | -122.78457 | 5673 ft | 230 kts | 301° |
| 2026-05-06 00:06 | 45.66945 | -122.80482 | 6259 ft | 234 kts | 293° |
| 2026-05-06 00:06 | 45.67084 | -122.82805 | 6728 ft | 245 kts | 263° |
| 2026-05-06 00:06 | 45.66611 | -122.85149 | 7304 ft | 247 kts | 253° |
| 2026-05-06 00:06 | 45.66048 | -122.87450 | 7916 ft | 248 kts | 253° |
| 2026-05-06 00:07 | 45.65448 | -122.89757 | 8457 ft | 252 kts | 245° |
| 2026-05-06 00:07 | 45.64203 | -122.91570 | 8836 ft | 262 kts | 209° |
| 2026-05-06 00:07 | 45.62452 | -122.92216 | 9306 ft | 265 kts | 182° |
| 2026-05-06 00:07 | 45.60628 | -122.92110 | 9881 ft | 265 kts | 171° |
| 2026-05-06 00:08 | 45.58831 | -122.91489 | 10398 ft | 266 kts | 162° |
| 2026-05-06 00:08 | 45.57078 | -122.90760 | 11080 ft | 261 kts | 161° |
| 2026-05-06 00:08 | 45.55379 | -122.89949 | 11557 ft | 262 kts | 152° |
| 2026-05-06 00:08 | 45.53981 | -122.88293 | 11845 ft | 267 kts | 124° |
| 2026-05-06 00:09 | 45.53039 | -122.85986 | 12251 ft | 268 kts | 113° |
| 2026-05-06 00:09 | 45.52236 | -122.83604 | 12743 ft | 267 kts | 110° |
| 2026-05-06 00:09 | 45.51520 | -122.81192 | 13222 ft | 267 kts | 109° |
| 2026-05-06 00:09 | 45.50892 | -122.78728 | 13723 ft | 266 kts | 106° |
| 2026-05-06 00:10 | 45.50187 | -122.76284 | 14164 ft | 268 kts | 110° |
| 2026-05-06 00:10 | 45.49417 | -122.73877 | 14579 ft | 270 kts | 110° |
| 2026-05-06 00:10 | 45.48641 | -122.71442 | 15031 ft | 269 kts | 110° |
| 2026-05-06 00:10 | 45.47872 | -122.69016 | 15431 ft | 271 kts | 110° |
| 2026-05-06 00:11 | 45.47107 | -122.66594 | 15826 ft | 272 kts | 109° |
| 2026-05-06 00:11 | 45.46338 | -122.64153 | 16226 ft | 272 kts | 109° |
| 2026-05-06 00:11 | 45.45561 | -122.61676 | 16582 ft | 274 kts | 109° |
| 2026-05-06 00:11 | 45.44787 | -122.59209 | 16942 ft | 275 kts | 109° |
| 2026-05-06 00:12 | 45.44010 | -122.56734 | 17310 ft | 275 kts | 109° |
| 2026-05-06 00:12 | 45.43229 | -122.54244 | 17638 ft | 277 kts | 109° |
| 2026-05-06 00:12 | 45.42446 | -122.51749 | 17986 ft | 278 kts | 108° |
| 2026-05-06 00:12 | 45.41651 | -122.49213 | 18268 ft | 281 kts | 108° |
| 2026-05-06 00:13 | 45.40850 | -122.46662 | 18573 ft | 283 kts | 108° |
| 2026-05-06 00:13 | 45.40048 | -122.44105 | 18901 ft | 284 kts | 108° |
| 2026-05-06 00:13 | 45.39247 | -122.41557 | 19195 ft | 285 kts | 108° |
| 2026-05-06 00:13 | 45.38441 | -122.38996 | 19478 ft | 287 kts | 108° |
| 2026-05-06 00:14 | 45.37624 | -122.36404 | 19793 ft | 288 kts | 108° |
| 2026-05-06 00:14 | 45.36800 | -122.33789 | 20069 ft | 289 kts | 109° |
| 2026-05-06 00:14 | 45.35983 | -122.31194 | 20290 ft | 291 kts | 109° |
| 2026-05-06 00:14 | 45.35147 | -122.28549 | 20516 ft | 294 kts | 109° |
| 2026-05-06 00:15 | 45.34320 | -122.25932 | 20769 ft | 294 kts | 108° |
| 2026-05-06 00:15 | 45.33473 | -122.23253 | 20931 ft | 298 kts | 108° |
| 2026-05-06 00:15 | 45.32620 | -122.20554 | 20965 ft | 303 kts | 108° |
| 2026-05-06 00:15 | 45.31754 | -122.17816 | 21002 ft | 310 kts | 109° |
| 2026-05-06 00:16 | 45.30861 | -122.14993 | 21015 ft | 316 kts | 109° |
| 2026-05-06 00:16 | 45.29946 | -122.12111 | 21033 ft | 323 kts | 109° |
| 2026-05-06 00:16 | 45.29020 | -122.09206 | 21038 ft | 328 kts | 109° |
| 2026-05-06 00:16 | 45.28069 | -122.06221 | 21042 ft | 333 kts | 109° |
| 2026-05-06 00:17 | 45.27123 | -122.03255 | 21051 ft | 336 kts | 109° |
| 2026-05-06 00:17 | 45.26145 | -122.00195 | 21055 ft | 338 kts | 109° |
| 2026-05-06 00:17 | 45.25189 | -121.97197 | 21061 ft | 338 kts | 108° |
| 2026-05-06 00:17 | 45.24343 | -121.94107 | 21060 ft | 336 kts | 104° |
| 2026-05-06 00:18 | 45.23562 | -121.90968 | 21059 ft | 337 kts | 103° |
| 2026-05-06 00:18 | 45.22783 | -121.87848 | 21058 ft | 336 kts | 103° |
| 2026-05-06 00:18 | 45.22006 | -121.84758 | 21053 ft | 336 kts | 104° |
| 2026-05-06 00:18 | 45.21215 | -121.81628 | 21046 ft | 336 kts | 104° |
| 2026-05-06 00:19 | 45.20430 | -121.78537 | 21044 ft | 336 kts | 104° |
| 2026-05-06 00:19 | 45.19629 | -121.75399 | 21034 ft | 336 kts | 104° |
| 2026-05-06 00:19 | 45.18837 | -121.72305 | 21034 ft | 335 kts | 104° |
| 2026-05-06 00:19 | 45.18050 | -121.69237 | 21035 ft | 334 kts | 104° |
| 2026-05-06 00:20 | 45.17249 | -121.66122 | 21038 ft | 334 kts | 104° |
| 2026-05-06 00:20 | 45.16461 | -121.63064 | 21043 ft | 333 kts | 104° |
| 2026-05-06 00:20 | 45.15666 | -121.59986 | 21049 ft | 333 kts | 104° |
| 2026-05-06 00:20 | 45.14875 | -121.56922 | 21050 ft | 332 kts | 104° |
| 2026-05-06 00:21 | 45.14078 | -121.53851 | 21046 ft | 332 kts | 104° |
| 2026-05-06 00:21 | 45.13284 | -121.50792 | 21044 ft | 332 kts | 104° |
| 2026-05-06 00:21 | 45.12493 | -121.47746 | 21042 ft | 332 kts | 104° |
| 2026-05-06 00:21 | 45.11695 | -121.44677 | 21033 ft | 331 kts | 103° |
| 2026-05-06 00:22 | 45.10906 | -121.41652 | 21027 ft | 331 kts | 103° |
| 2026-05-06 00:22 | 45.10115 | -121.38620 | 21030 ft | 331 kts | 103° |
| 2026-05-06 00:22 | 45.09313 | -121.35551 | 21024 ft | 331 kts | 103° |
| 2026-05-06 00:22 | 45.08516 | -121.32503 | 21020 ft | 331 kts | 104° |
| 2026-05-06 00:23 | 45.07721 | -121.29466 | 21019 ft | 331 kts | 104° |
| 2026-05-06 00:23 | 45.06926 | -121.26437 | 21019 ft | 331 kts | 104° |
| 2026-05-06 00:23 | 45.06129 | -121.23401 | 21017 ft | 331 kts | 104° |
| 2026-05-06 00:23 | 45.05332 | -121.20373 | 21011 ft | 331 kts | 104° |
| 2026-05-06 00:24 | 45.04527 | -121.17318 | 21006 ft | 331 kts | 104° |
| 2026-05-06 00:24 | 45.03731 | -121.14300 | 21002 ft | 330 kts | 104° |
| 2026-05-06 00:24 | 45.02924 | -121.11243 | 20996 ft | 330 kts | 104° |
| 2026-05-06 00:24 | 45.02122 | -121.08208 | 21003 ft | 330 kts | 104° |
| 2026-05-06 00:25 | 45.01323 | -121.05188 | 21002 ft | 330 kts | 104° |
| 2026-05-06 00:25 | 45.00523 | -121.02165 | 21005 ft | 329 kts | 104° |
| 2026-05-06 00:25 | 44.99718 | -120.99132 | 21004 ft | 329 kts | 104° |
| 2026-05-06 00:25 | 44.98916 | -120.96122 | 21004 ft | 329 kts | 104° |
| 2026-05-06 00:26 | 44.98121 | -120.93134 | 21004 ft | 329 kts | 104° |
| 2026-05-06 00:26 | 44.97307 | -120.90079 | 21004 ft | 329 kts | 104° |
| 2026-05-06 00:26 | 44.96508 | -120.87081 | 21002 ft | 329 kts | 104° |
| 2026-05-06 00:26 | 44.95707 | -120.84085 | 21002 ft | 329 kts | 104° |
| 2026-05-06 00:27 | 44.94894 | -120.81043 | 21008 ft | 328 kts | 104° |
| 2026-05-06 00:27 | 44.94091 | -120.78045 | 21005 ft | 328 kts | 104° |
| 2026-05-06 00:27 | 44.93294 | -120.75070 | 21003 ft | 328 kts | 104° |
| 2026-05-06 00:27 | 44.92489 | -120.72073 | 20999 ft | 328 kts | 103° |
| 2026-05-06 00:28 | 44.91675 | -120.69043 | 20998 ft | 328 kts | 104° |
| 2026-05-06 00:28 | 44.90872 | -120.66060 | 20994 ft | 328 kts | 104° |
| 2026-05-06 00:28 | 44.90064 | -120.63058 | 20993 ft | 328 kts | 104° |
| 2026-05-06 00:28 | 44.89259 | -120.60075 | 20989 ft | 327 kts | 104° |
| 2026-05-06 00:29 | 44.88446 | -120.57068 | 20981 ft | 327 kts | 104° |
| 2026-05-06 00:29 | 44.87645 | -120.54105 | 20979 ft | 326 kts | 104° |
| 2026-05-06 00:29 | 44.86832 | -120.51102 | 20980 ft | 326 kts | 103° |
| 2026-05-06 00:29 | 44.86031 | -120.48150 | 20980 ft | 326 kts | 103° |
| 2026-05-06 00:30 | 44.85218 | -120.45154 | 20981 ft | 326 kts | 103° |
| 2026-05-06 00:30 | 44.84419 | -120.42214 | 20974 ft | 325 kts | 103° |
| 2026-05-06 00:30 | 44.83608 | -120.39235 | 20983 ft | 325 kts | 103° |
| 2026-05-06 00:30 | 44.82800 | -120.36269 | 20979 ft | 325 kts | 103° |
| 2026-05-06 00:31 | 44.81995 | -120.33318 | 20981 ft | 325 kts | 104° |
| 2026-05-06 00:31 | 44.81181 | -120.30337 | 20980 ft | 325 kts | 104° |
| 2026-05-06 00:31 | 44.80371 | -120.27374 | 20975 ft | 325 kts | 104° |
| 2026-05-06 00:31 | 44.79560 | -120.24411 | 20973 ft | 326 kts | 104° |
| 2026-05-06 00:32 | 44.78738 | -120.21413 | 20979 ft | 326 kts | 104° |
| 2026-05-06 00:32 | 44.77925 | -120.18452 | 20980 ft | 326 kts | 104° |
| 2026-05-06 00:32 | 44.77115 | -120.15505 | 20983 ft | 326 kts | 104° |
| 2026-05-06 00:32 | 44.76305 | -120.12560 | 20993 ft | 326 kts | 104° |
| 2026-05-06 00:33 | 44.75480 | -120.09564 | 21000 ft | 325 kts | 104° |
| 2026-05-06 00:33 | 44.74664 | -120.06609 | 21009 ft | 325 kts | 104° |
| 2026-05-06 00:33 | 44.73850 | -120.03661 | 21021 ft | 325 kts | 104° |
| 2026-05-06 00:33 | 44.73033 | -120.00705 | 21020 ft | 326 kts | 104° |
| 2026-05-06 00:34 | 44.72211 | -119.97736 | 21024 ft | 326 kts | 104° |
| 2026-05-06 00:34 | 44.71389 | -119.94769 | 21026 ft | 326 kts | 104° |
| 2026-05-06 00:34 | 44.70569 | -119.91817 | 21032 ft | 326 kts | 104° |
| 2026-05-06 00:34 | 44.69748 | -119.88861 | 21030 ft | 326 kts | 104° |
| 2026-05-06 00:35 | 44.68927 | -119.85910 | 21038 ft | 326 kts | 104° |
| 2026-05-06 00:35 | 44.68103 | -119.82951 | 21038 ft | 326 kts | 104° |
| 2026-05-06 00:35 | 44.67281 | -119.80005 | 21038 ft | 326 kts | 104° |
| 2026-05-06 00:35 | 44.66461 | -119.77067 | 21038 ft | 326 kts | 104° |
| 2026-05-06 00:36 | 44.65630 | -119.74093 | 21037 ft | 326 kts | 104° |
| 2026-05-06 00:36 | 44.64835 | -119.71146 | 21033 ft | 323 kts | 100° |
| 2026-05-06 00:36 | 44.64270 | -119.68141 | 21038 ft | 320 kts | 95° |
| 2026-05-06 00:36 | 44.63770 | -119.65080 | 21035 ft | 319 kts | 95° |
| 2026-05-06 00:37 | 44.63278 | -119.62064 | 21036 ft | 319 kts | 95° |
| 2026-05-06 00:37 | 44.62781 | -119.59034 | 21028 ft | 320 kts | 95° |
| 2026-05-06 00:37 | 44.62284 | -119.56014 | 21028 ft | 320 kts | 95° |
| 2026-05-06 00:37 | 44.61782 | -119.52980 | 21029 ft | 320 kts | 95° |
| 2026-05-06 00:38 | 44.61278 | -119.49948 | 21024 ft | 320 kts | 95° |
| 2026-05-06 00:38 | 44.60770 | -119.46903 | 21025 ft | 320 kts | 95° |
| 2026-05-06 00:38 | 44.60265 | -119.43881 | 21031 ft | 320 kts | 95° |
| 2026-05-06 00:38 | 44.59758 | -119.40853 | 21034 ft | 320 kts | 95° |
| 2026-05-06 00:39 | 44.59245 | -119.37802 | 21039 ft | 320 kts | 95° |
| 2026-05-06 00:39 | 44.58735 | -119.34772 | 21041 ft | 320 kts | 96° |
| 2026-05-06 00:39 | 44.58224 | -119.31740 | 21041 ft | 321 kts | 96° |
| 2026-05-06 00:39 | 44.57709 | -119.28692 | 21047 ft | 321 kts | 96° |
| 2026-05-06 00:40 | 44.57196 | -119.25662 | 21046 ft | 321 kts | 96° |
| 2026-05-06 00:40 | 44.56680 | -119.22624 | 21047 ft | 322 kts | 96° |
| 2026-05-06 00:40 | 44.56164 | -119.19589 | 21048 ft | 322 kts | 96° |
| 2026-05-06 00:40 | 44.55647 | -119.16548 | 21051 ft | 322 kts | 96° |
| 2026-05-06 00:41 | 44.55122 | -119.13472 | 21046 ft | 322 kts | 96° |
| 2026-05-06 00:41 | 44.54603 | -119.10437 | 21046 ft | 322 kts | 96° |
| 2026-05-06 00:41 | 44.54081 | -119.07386 | 21051 ft | 322 kts | 96° |
| 2026-05-06 00:41 | 44.53555 | -119.04324 | 21052 ft | 322 kts | 96° |
| 2026-05-06 00:42 | 44.53033 | -119.01282 | 21056 ft | 322 kts | 96° |
| 2026-05-06 00:42 | 44.52514 | -118.98268 | 21060 ft | 322 kts | 96° |
| 2026-05-06 00:42 | 44.51988 | -118.95216 | 21061 ft | 322 kts | 96° |
| 2026-05-06 00:42 | 44.51462 | -118.92172 | 21060 ft | 323 kts | 96° |
| 2026-05-06 00:43 | 44.50936 | -118.89132 | 21067 ft | 322 kts | 96° |
| 2026-05-06 00:43 | 44.50410 | -118.86092 | 21069 ft | 322 kts | 96° |
| 2026-05-06 00:43 | 44.49882 | -118.83052 | 21073 ft | 322 kts | 96° |
| 2026-05-06 00:43 | 44.49354 | -118.80015 | 21069 ft | 323 kts | 96° |
| 2026-05-06 00:44 | 44.48821 | -118.76953 | 21071 ft | 323 kts | 96° |
| 2026-05-06 00:44 | 44.48288 | -118.73899 | 21068 ft | 323 kts | 96° |
| 2026-05-06 00:44 | 44.47757 | -118.70863 | 21070 ft | 323 kts | 96° |
| 2026-05-06 00:44 | 44.47222 | -118.67803 | 21075 ft | 323 kts | 96° |
| 2026-05-06 00:45 | 44.46690 | -118.64773 | 21080 ft | 323 kts | 96° |
| 2026-05-06 00:45 | 44.46154 | -118.61725 | 21078 ft | 323 kts | 96° |
| 2026-05-06 00:45 | 44.45619 | -118.58681 | 21078 ft | 323 kts | 96° |
| 2026-05-06 00:45 | 44.45083 | -118.55640 | 21078 ft | 323 kts | 96° |
| 2026-05-06 00:46 | 44.44547 | -118.52602 | 21078 ft | 323 kts | 95° |
| 2026-05-06 00:46 | 44.44004 | -118.49535 | 21073 ft | 324 kts | 96° |
| 2026-05-06 00:46 | 44.43465 | -118.46492 | 21066 ft | 324 kts | 96° |
| 2026-05-06 00:46 | 44.42924 | -118.43443 | 21067 ft | 323 kts | 96° |
| 2026-05-06 00:47 | 44.42389 | -118.40435 | 21064 ft | 323 kts | 96° |
| 2026-05-06 00:47 | 44.41845 | -118.37378 | 21059 ft | 323 kts | 96° |
| 2026-05-06 00:47 | 44.41300 | -118.34320 | 21056 ft | 323 kts | 96° |
| 2026-05-06 00:47 | 44.40759 | -118.31295 | 21050 ft | 323 kts | 96° |
| 2026-05-06 00:48 | 44.40213 | -118.28241 | 21043 ft | 323 kts | 96° |
| 2026-05-06 00:48 | 44.39669 | -118.25204 | 21037 ft | 323 kts | 96° |
| 2026-05-06 00:48 | 44.39125 | -118.22169 | 21029 ft | 324 kts | 96° |
| 2026-05-06 00:48 | 44.38577 | -118.19128 | 21033 ft | 324 kts | 96° |
| 2026-05-06 00:49 | 44.38031 | -118.16094 | 21030 ft | 324 kts | 96° |
| 2026-05-06 00:49 | 44.37481 | -118.13044 | 21022 ft | 324 kts | 96° |
| 2026-05-06 00:49 | 44.36926 | -118.09976 | 21022 ft | 325 kts | 96° |
| 2026-05-06 00:49 | 44.36371 | -118.06910 | 21025 ft | 325 kts | 96° |
| 2026-05-06 00:50 | 44.35820 | -118.03872 | 21021 ft | 325 kts | 96° |
| 2026-05-06 00:50 | 44.35268 | -118.00832 | 21011 ft | 325 kts | 96° |
| 2026-05-06 00:50 | 44.34714 | -117.97788 | 21016 ft | 325 kts | 96° |
| 2026-05-06 00:50 | 44.34160 | -117.94741 | 21009 ft | 325 kts | 96° |
| 2026-05-06 00:51 | 44.33597 | -117.91669 | 21007 ft | 325 kts | 96° |
| 2026-05-06 00:51 | 44.33044 | -117.88647 | 21010 ft | 325 kts | 96° |
| 2026-05-06 00:51 | 44.32484 | -117.85588 | 21004 ft | 325 kts | 96° |
| 2026-05-06 00:51 | 44.31923 | -117.82526 | 20997 ft | 325 kts | 96° |
| 2026-05-06 00:52 | 44.31363 | -117.79478 | 20996 ft | 325 kts | 96° |
| 2026-05-06 00:52 | 44.30799 | -117.76411 | 20992 ft | 326 kts | 96° |
| 2026-05-06 00:52 | 44.30236 | -117.73358 | 20987 ft | 326 kts | 96° |
| 2026-05-06 00:52 | 44.29674 | -117.70316 | 20990 ft | 326 kts | 96° |
| 2026-05-06 00:53 | 44.29114 | -117.67286 | 20986 ft | 326 kts | 96° |
| 2026-05-06 00:53 | 44.28549 | -117.64236 | 20981 ft | 326 kts | 96° |
| 2026-05-06 00:53 | 44.27982 | -117.61178 | 20965 ft | 326 kts | 96° |
| 2026-05-06 00:53 | 44.27408 | -117.58092 | 20957 ft | 327 kts | 96° |
| 2026-05-06 00:54 | 44.26844 | -117.55060 | 20951 ft | 327 kts | 96° |
| 2026-05-06 00:54 | 44.26274 | -117.52007 | 20952 ft | 327 kts | 96° |
| 2026-05-06 00:54 | 44.25704 | -117.48955 | 20939 ft | 327 kts | 96° |
| 2026-05-06 00:54 | 44.25131 | -117.45888 | 20928 ft | 327 kts | 96° |
| 2026-05-06 00:55 | 44.24554 | -117.42809 | 20928 ft | 327 kts | 96° |
| 2026-05-06 00:55 | 44.23980 | -117.39756 | 20934 ft | 327 kts | 96° |
| 2026-05-06 00:55 | 44.23399 | -117.36665 | 20924 ft | 328 kts | 96° |
| 2026-05-06 00:55 | 44.22823 | -117.33604 | 20894 ft | 329 kts | 97° |
| 2026-05-06 00:56 | 44.22240 | -117.30496 | 20647 ft | 336 kts | 97° |
| 2026-05-06 00:56 | 44.21643 | -117.27344 | 20320 ft | 341 kts | 98° |
| 2026-05-06 00:56 | 44.20641 | -117.24296 | 19941 ft | 360 kts | 120° |
| 2026-05-06 00:56 | 44.18887 | -117.21729 | 19604 ft | 369 kts | 131° |
| 2026-05-06 00:57 | 44.17013 | -117.19289 | 19219 ft | 373 kts | 132° |
| 2026-05-06 00:57 | 44.15105 | -117.16824 | 18833 ft | 374 kts | 132° |
| 2026-05-06 00:57 | 44.13195 | -117.14354 | 18439 ft | 375 kts | 132° |
| 2026-05-06 00:57 | 44.11299 | -117.11897 | 18057 ft | 374 kts | 133° |
| 2026-05-06 00:58 | 44.09398 | -117.09431 | 17675 ft | 369 kts | 132° |
| 2026-05-06 00:58 | 44.07554 | -117.07037 | 17313 ft | 365 kts | 132° |
| 2026-05-06 00:58 | 44.05732 | -117.04671 | 17086 ft | 357 kts | 132° |
| 2026-05-06 00:58 | 44.03914 | -117.02308 | 16763 ft | 352 kts | 132° |
| 2026-05-06 00:59 | 44.02134 | -116.99995 | 16423 ft | 350 kts | 132° |
| 2026-05-06 00:59 | 44.00371 | -116.97702 | 16073 ft | 349 kts | 132° |
| 2026-05-06 00:59 | 43.98617 | -116.95423 | 15730 ft | 347 kts | 132° |
| 2026-05-06 00:59 | 43.96900 | -116.93092 | 15374 ft | 343 kts | 127° |
| 2026-05-06 01:00 | 43.95514 | -116.90473 | 15129 ft | 335 kts | 118° |
| 2026-05-06 01:00 | 43.94236 | -116.87816 | 15061 ft | 325 kts | 118° |
| 2026-05-06 01:00 | 43.93005 | -116.85259 | 15039 ft | 316 kts | 118° |
| 2026-05-06 01:00 | 43.91802 | -116.82761 | 15028 ft | 307 kts | 118° |
| 2026-05-06 01:01 | 43.90630 | -116.80331 | 15021 ft | 300 kts | 118° |
| 2026-05-06 01:01 | 43.89479 | -116.77951 | 15023 ft | 293 kts | 118° |
| 2026-05-06 01:01 | 43.88364 | -116.75651 | 15024 ft | 287 kts | 118° |
| 2026-05-06 01:01 | 43.87339 | -116.73537 | 15024 ft | 281 kts | 117° |
| 2026-05-06 01:02 | 43.86245 | -116.71280 | 14829 ft | 285 kts | 117° |
| 2026-05-06 01:02 | 43.85143 | -116.69003 | 14507 ft | 292 kts | 118° |
| 2026-05-06 01:02 | 43.84005 | -116.66653 | 14176 ft | 298 kts | 118° |
| 2026-05-06 01:02 | 43.82832 | -116.64243 | 13838 ft | 303 kts | 118° |
| 2026-05-06 01:03 | 43.81647 | -116.61834 | 13506 ft | 307 kts | 120° |
| 2026-05-06 01:03 | 43.80435 | -116.59390 | 13164 ft | 310 kts | 120° |
| 2026-05-06 01:03 | 43.79209 | -116.56922 | 12821 ft | 312 kts | 120° |
| 2026-05-06 01:03 | 43.77978 | -116.54446 | 12479 ft | 313 kts | 120° |
| 2026-05-06 01:04 | 43.76747 | -116.51971 | 12129 ft | 314 kts | 120° |
| 2026-05-06 01:04 | 43.75507 | -116.49480 | 11795 ft | 315 kts | 120° |
| 2026-05-06 01:04 | 43.74280 | -116.47018 | 11464 ft | 315 kts | 120° |
| 2026-05-06 01:04 | 43.73039 | -116.44528 | 11115 ft | 315 kts | 120° |
| 2026-05-06 01:05 | 43.71793 | -116.42030 | 10789 ft | 315 kts | 120° |
| 2026-05-06 01:05 | 43.70565 | -116.39570 | 10446 ft | 314 kts | 120° |
| 2026-05-06 01:05 | 43.69340 | -116.37116 | 10106 ft | 308 kts | 120° |
| 2026-05-06 01:05 | 43.68126 | -116.34689 | 9767 ft | 304 kts | 121° |
| 2026-05-06 01:06 | 43.67025 | -116.32262 | 9426 ft | 296 kts | 113° |
| 2026-05-06 01:06 | 43.66192 | -116.29715 | 9088 ft | 290 kts | 109° |
| 2026-05-06 01:06 | 43.65387 | -116.27161 | 8749 ft | 286 kts | 110° |
| 2026-05-06 01:06 | 43.64592 | -116.24673 | 8415 ft | 282 kts | 110° |
| 2026-05-06 01:07 | 43.63804 | -116.22248 | 8160 ft | 276 kts | 110° |
| 2026-05-06 01:07 | 43.63027 | -116.19885 | 8086 ft | 267 kts | 110° |
| 2026-05-06 01:07 | 43.62248 | -116.17539 | 8072 ft | 266 kts | 110° |
| 2026-05-06 01:07 | 43.61478 | -116.15234 | 8062 ft | 265 kts | 110° |
| 2026-05-06 01:08 | 43.60712 | -116.12952 | 8061 ft | 265 kts | 110° |
| 2026-05-06 01:08 | 43.59936 | -116.10644 | 8062 ft | 264 kts | 110° |
| 2026-05-06 01:08 | 43.59165 | -116.08364 | 8064 ft | 263 kts | 110° |
| 2026-05-06 01:08 | 43.58389 | -116.06078 | 8066 ft | 263 kts | 111° |
| 2026-05-06 01:09 | 43.57611 | -116.03790 | 8064 ft | 263 kts | 110° |
| 2026-05-06 01:09 | 43.56839 | -116.01524 | 8066 ft | 263 kts | 111° |
| 2026-05-06 01:09 | 43.56061 | -115.99242 | 8066 ft | 263 kts | 110° |
| 2026-05-06 01:09 | 43.55289 | -115.96977 | 8072 ft | 262 kts | 110° |
| 2026-05-06 01:10 | 43.54390 | -115.94775 | 8050 ft | 267 kts | 126° |
| 2026-05-06 01:10 | 43.52847 | -115.93320 | 7935 ft | 273 kts | 161° |
| 2026-05-06 01:10 | 43.51011 | -115.93210 | 7809 ft | 265 kts | 195° |
| 2026-05-06 01:10 | 43.49424 | -115.94336 | 7632 ft | 251 kts | 225° |
| 2026-05-06 01:11 | 43.48370 | -115.96134 | 7514 ft | 234 kts | 251° |
| 2026-05-06 01:11 | 43.48109 | -115.98208 | 7314 ft | 213 kts | 283° |
| 2026-05-06 01:11 | 43.48546 | -116.00050 | 6942 ft | 199 kts | 305° |
| 2026-05-06 01:11 | 43.49239 | -116.01659 | 6595 ft | 191 kts | 300° |
| 2026-05-06 01:12 | 43.49729 | -116.03307 | 6269 ft | 184 kts | 299° |
| 2026-05-06 01:12 | 43.50254 | -116.04891 | 5822 ft | 182 kts | 300° |
| 2026-05-06 01:12 | 43.50813 | -116.06397 | 5535 ft | 173 kts | 302° |
| 2026-05-06 01:12 | 43.51306 | -116.07900 | 5147 ft | 167 kts | 301° |
| 2026-05-06 01:13 | 43.51802 | -116.09273 | 4723 ft | 160 kts | 302° |
| 2026-05-06 01:13 | 43.52245 | -116.10603 | 4452 ft | 140 kts | 298° |
| 2026-05-06 01:13 | 43.52592 | -116.11788 | 4289 ft | 130 kts | 301° |
| 2026-05-06 01:13 | 43.52964 | -116.12907 | 4145 ft | 129 kts | 303° |
| 2026-05-06 01:14 | 43.53739 | -116.15129 | 3862 ft | 125 kts | 303° |
| 2026-05-06 01:14 | 43.54132 | -116.16168 | 3673 ft | 121 kts | 304° |
| 2026-05-06 01:14 | 43.54522 | -116.17203 | 3534 ft | 124 kts | 305° |
| 2026-05-06 01:15 | 43.54916 | -116.18281 | 3413 ft | 126 kts | 304° |
| 2026-05-06 01:15 | 43.55316 | -116.19376 | 3227 ft | 129 kts | 302° |
| 2026-05-06 01:15 | 43.55711 | -116.20490 | 2983 ft | 129 kts | 302° |
| 2026-05-06 01:15 | 43.56088 | -116.21583 | 2869 ft | 114 kts | 296° |
| 2026-05-06 01:16 | 43.56345 | -116.22320 | 2862 ft | 64 kts | 294° |
| 2026-05-06 01:16 | 43.56495 | -116.22769 | 2857 ft | 40 kts | 295° |
| 2026-05-06 01:16 | 43.56589 | -116.23052 | 2854 ft | 26 kts | 292° |
| 2026-05-06 01:16 | 43.56650 | -116.23174 | 2852 ft | 9 kts | 353° |
| 2026-05-06 01:17 | 43.56705 | -116.23148 | 2852 ft | 8 kts | 25° |
| 2026-05-06 01:17 | 43.56760 | -116.23113 | 2851 ft | 7 kts | 24° |
| 2026-05-06 01:17 | 43.56797 | -116.23088 | 2851 ft | 6 kts | 25° |
| 2026-05-06 01:17 | 43.56851 | -116.23055 | 2851 ft | 9 kts | 25° |
| 2026-05-06 01:18 | 43.56901 | -116.23006 | 2851 ft | 8 kts | 76° |
| 2026-05-06 01:18 | 43.56876 | -116.22914 | 2853 ft | 11 kts | 116° |
| 2026-05-06 01:18 | 43.56843 | -116.22818 | 2856 ft | 10 kts | 115° |
| 2026-05-06 01:18 | 43.56810 | -116.22720 | 2858 ft | 12 kts | 115° |
| 2026-05-06 01:19 | 43.56773 | -116.22611 | 2860 ft | 12 kts | 115° |
| 2026-05-06 01:19 | 43.56745 | -116.22511 | 2860 ft | 8 kts | 88° |
| 2026-05-06 01:19 | 43.56783 | -116.22462 | 2860 ft | 6 kts | 25° |
| 2026-05-06 01:19 | 43.56805 | -116.22444 | 2860 ft | 2 kts | 43° |
| 2026-05-06 01:20 | 43.56813 | -116.22422 | 2860 ft | 3 kts | 79° |
| 2026-05-06 01:20 | 43.56812 | -116.22391 | 2861 ft | 0 kts | 98° |